Oralynn — ZDNX8 — position and weather

sailwx.info

Track history (hours):
 
Tides and Currents Weather Stations Pressure Air Temp Water Temp Dewpoint Dewpoint Depression Visibility Wind Speed Wind Dir Waves Ship Positions

Oralynn

Last reported at 2018-Apr-19 00:43 UTC. Time now 2018-Apr-19 17:36 UTC.
Position N 39°34' W 009°57'.

Length 103 m; draft 6.7 m.

Type: Tanker. MMSI: 236647000.

Date/timePositionNaut miles runAvg speedWind from/ knotsBaromVisibWave heightAir tempDewpointWater temp
2018-Apr-19 00:43N 39°34' W 009°57'210.8
2018-Apr-19 00:30N 39°32' W 009°57'510.5
2018-Apr-18 23:59N 39°26' W 009°57'510.5
2018-Apr-18 23:31N 39°21' W 009°57'510.2
2018-Apr-18 23:00N 39°16' W 009°58'510.0
2018-Apr-18 22:31N 39°11' W 009°58'510.1
2018-Apr-18 22:01N 39°06' W 009°58'510.2
2018-Apr-18 21:30N 39°01' W 009°58'510.0
2018-Apr-18 21:01N 38°56' W 009°58'5 9.7
2018-Apr-18 20:31N 38°51' W 009°58'5 9.8
2018-Apr-18 20:00N 38°46' W 009°58'510.2
2018-Apr-18 19:29N 38°41' W 009°56'510.4
2018-Apr-18 19:01N 38°36' W 009°55'510.2
2018-Apr-18 18:30N 38°31' W 009°54'510.1
2018-Apr-18 18:01N 38°26' W 009°53'510.2
2018-Apr-18 17:31N 38°21' W 009°51'510.3
2018-Apr-18 17:00N 38°16' W 009°49'510.2
2018-Apr-18 16:30N 38°11' W 009°48'510.2
2018-Apr-18 16:01N 38°06' W 009°46'510.4
2018-Apr-18 15:30N 38°01' W 009°45'510.2
2018-Apr-18 15:00N 37°56' W 009°43'510.3
2018-Apr-18 14:30N 37°51' W 009°42'510.3
2018-Apr-18 14:00N 37°46' W 009°41'510.4
2018-Apr-18 13:30N 37°41' W 009°39'78 8.5
2018-Apr-18 04:20N 36°40' W 008°37'310.4
2018-Apr-18 04:01N 36°41' W 008°33'150 4.1
2018-Apr-16 15:10N 35°58' W 005°34'2 9.2
2018-Apr-16 14:59N 35°58' W 005°32'4 8.8
2018-Apr-16 14:30N 35°60' W 005°27'4 8.3
2018-Apr-16 14:00N 36°01' W 005°22'4 8.1
2018-Apr-16 13:30N 36°02' W 005°17'22010.1
2018-Apr-15 15:44N 37°06' W 000°56'311.0
2018-Apr-15 15:29N 37°08' W 000°53'610.9
2018-Apr-15 14:59N 37°11' W 000°48'510.8
2018-Apr-15 14:30N 37°15' W 000°43'510.7
2018-Apr-15 14:00N 37°18' W 000°38'610.6
2018-Apr-15 13:28N 37°22' W 000°32'510.7
2018-Apr-15 13:00N 37°25' W 000°28'510.7
2018-Apr-15 12:30N 37°29' W 000°23'510.8
2018-Apr-15 12:00N 37°32' W 000°18'711.4
2018-Apr-15 11:26N 37°37' W 000°13'22911.4
2018-Apr-14 15:27N 41°02' E 002°01'612.5
2018-Apr-14 15:00N 41°07' E 002°04'612.4
2018-Apr-14 14:30N 41°12' E 002°08'611.6
2018-Apr-14 14:00N 41°17' E 002°10'3 0.1
2018-Apr-13 16:48N 41°20' E 002°09'0 0.0
2018-Apr-13 16:18N 41°20' E 002°09'0 0.0
2018-Apr-13 15:48N 41°20' E 002°09'0 0.0
2018-Apr-13 14:42N 41°20' E 002°09'0 0.0
2018-Apr-13 14:30N 41°20' E 002°09'0 0.0
2018-Apr-13 14:00N 41°20' E 002°09'0 0.0
2018-Apr-13 13:24N 41°20' E 002°09'0 0.0
2018-Apr-13 13:00N 41°20' E 002°09'0 0.0
2018-Apr-13 12:30N 41°20' E 002°09'0 0.0
2018-Apr-13 12:00N 41°20' E 002°09'0 0.0
2018-Apr-13 11:30N 41°20' E 002°09'0 0.0
2018-Apr-13 11:00N 41°20' E 002°09'0 0.0
2018-Apr-13 10:27N 41°20' E 002°09'0 0.0
2018-Apr-13 10:00N 41°20' E 002°09'0 0.0
2018-Apr-13 09:30N 41°20' E 002°09'0 0.0
2018-Apr-13 09:00N 41°20' E 002°09'0 0.0
2018-Apr-13 08:27N 41°20' E 002°09'0 0.7
2018-Apr-13 08:00N 41°21' E 002°09'3 6.5
2018-Apr-13 07:30N 41°17' E 002°11'3 5.2
2018-Apr-13 07:00N 41°15' E 002°11'0 0.2
2018-Apr-13 06:30N 41°15' E 002°11'0 0.5
2018-Apr-13 06:00N 41°15' E 002°12'3 5.6
2018-Apr-13 05:31N 41°12' E 002°12'510.2
2018-Apr-13 05:00N 41°08' E 002°07'23410.7
2018-Apr-12 07:07N 37°44' W 000°21'110.8
2018-Apr-12 07:00N 37°43' W 000°22'510.8
2018-Apr-12 06:30N 37°38' W 000°25'510.7
2018-Apr-12 06:00N 37°34' W 000°29'510.8
2018-Apr-12 05:30N 37°30' W 000°34'611.1
2018-Apr-12 05:00N 37°26' W 000°40'510.8
2018-Apr-12 04:30N 37°23' W 000°45'810.8
2018-Apr-12 03:47N 37°18' W 000°52'22510.6
2018-Apr-11 06:31N 36°00' W 005°15'014.5
2018-Apr-11 06:30N 36°00' W 005°15'714.3
2018-Apr-11 06:00N 35°58' W 005°24'  
Track history (hours):
 
Tides and Currents Weather Stations Pressure Air Temp Water Temp Dewpoint Dewpoint Depression Visibility Wind Speed Wind Dir Waves Ship Positions

Oralynn

Last reported at 2018-Apr-19 00:43 UTC. Time now 2018-Apr-19 17:36 UTC.
Position N 39°34' W 009°57'.

Length 103 m; draft 6.7 m.

Type: Tanker. MMSI: 236647000.

Date/timePositionNaut miles runAvg speedWind from/ knotsBaromVisibWave heightAir tempDewpointWater temp
2018-Apr-19 00:43N 39°34' W 009°57'210.8
2018-Apr-19 00:30N 39°32' W 009°57'510.5
2018-Apr-18 23:59N 39°26' W 009°57'510.5
2018-Apr-18 23:31N 39°21' W 009°57'510.2
2018-Apr-18 23:00N 39°16' W 009°58'510.0
2018-Apr-18 22:31N 39°11' W 009°58'510.1
2018-Apr-18 22:01N 39°06' W 009°58'510.2
2018-Apr-18 21:30N 39°01' W 009°58'510.0
2018-Apr-18 21:01N 38°56' W 009°58'5 9.7
2018-Apr-18 20:31N 38°51' W 009°58'5 9.8
2018-Apr-18 20:00N 38°46' W 009°58'510.2
2018-Apr-18 19:29N 38°41' W 009°56'510.4
2018-Apr-18 19:01N 38°36' W 009°55'510.2
2018-Apr-18 18:30N 38°31' W 009°54'510.1
2018-Apr-18 18:01N 38°26' W 009°53'510.2
2018-Apr-18 17:31N 38°21' W 009°51'510.3
2018-Apr-18 17:00N 38°16' W 009°49'510.2
2018-Apr-18 16:30N 38°11' W 009°48'510.2
2018-Apr-18 16:01N 38°06' W 009°46'510.4
2018-Apr-18 15:30N 38°01' W 009°45'510.2
2018-Apr-18 15:00N 37°56' W 009°43'510.3
2018-Apr-18 14:30N 37°51' W 009°42'510.3
2018-Apr-18 14:00N 37°46' W 009°41'510.4
2018-Apr-18 13:30N 37°41' W 009°39'78 8.5
2018-Apr-18 04:20N 36°40' W 008°37'310.4
2018-Apr-18 04:01N 36°41' W 008°33'150 4.1
2018-Apr-16 15:10N 35°58' W 005°34'2 9.2
2018-Apr-16 14:59N 35°58' W 005°32'4 8.8
2018-Apr-16 14:30N 35°60' W 005°27'4 8.3
2018-Apr-16 14:00N 36°01' W 005°22'4 8.1
2018-Apr-16 13:30N 36°02' W 005°17'22010.1
2018-Apr-15 15:44N 37°06' W 000°56'311.0
2018-Apr-15 15:29N 37°08' W 000°53'610.9
2018-Apr-15 14:59N 37°11' W 000°48'510.8
2018-Apr-15 14:30N 37°15' W 000°43'510.7
2018-Apr-15 14:00N 37°18' W 000°38'610.6
2018-Apr-15 13:28N 37°22' W 000°32'510.7
2018-Apr-15 13:00N 37°25' W 000°28'510.7
2018-Apr-15 12:30N 37°29' W 000°23'510.8
2018-Apr-15 12:00N 37°32' W 000°18'711.4
2018-Apr-15 11:26N 37°37' W 000°13'22911.4
2018-Apr-14 15:27N 41°02' E 002°01'612.5
2018-Apr-14 15:00N 41°07' E 002°04'612.4
2018-Apr-14 14:30N 41°12' E 002°08'611.6
2018-Apr-14 14:00N 41°17' E 002°10'3 0.1
2018-Apr-13 16:48N 41°20' E 002°09'0 0.0
2018-Apr-13 16:18N 41°20' E 002°09'0 0.0
2018-Apr-13 15:48N 41°20' E 002°09'0 0.0
2018-Apr-13 14:42N 41°20' E 002°09'0 0.0
2018-Apr-13 14:30N 41°20' E 002°09'0 0.0
2018-Apr-13 14:00N 41°20' E 002°09'0 0.0
2018-Apr-13 13:24N 41°20' E 002°09'0 0.0
2018-Apr-13 13:00N 41°20' E 002°09'0 0.0
2018-Apr-13 12:30N 41°20' E 002°09'0 0.0
2018-Apr-13 12:00N 41°20' E 002°09'0 0.0
2018-Apr-13 11:30N 41°20' E 002°09'0 0.0
2018-Apr-13 11:00N 41°20' E 002°09'0 0.0
2018-Apr-13 10:27N 41°20' E 002°09'0 0.0
2018-Apr-13 10:00N 41°20' E 002°09'0 0.0
2018-Apr-13 09:30N 41°20' E 002°09'0 0.0
2018-Apr-13 09:00N 41°20' E 002°09'0 0.0
2018-Apr-13 08:27N 41°20' E 002°09'0 0.7
2018-Apr-13 08:00N 41°21' E 002°09'3 6.5
2018-Apr-13 07:30N 41°17' E 002°11'3 5.2
2018-Apr-13 07:00N 41°15' E 002°11'0 0.2
2018-Apr-13 06:30N 41°15' E 002°11'0 0.5
2018-Apr-13 06:00N 41°15' E 002°12'3 5.6
2018-Apr-13 05:31N 41°12' E 002°12'510.2
2018-Apr-13 05:00N 41°08' E 002°07'23410.7
2018-Apr-12 07:07N 37°44' W 000°21'110.8
2018-Apr-12 07:00N 37°43' W 000°22'510.8
2018-Apr-12 06:30N 37°38' W 000°25'510.7
2018-Apr-12 06:00N 37°34' W 000°29'510.8
2018-Apr-12 05:30N 37°30' W 000°34'611.1
2018-Apr-12 05:00N 37°26' W 000°40'510.8
2018-Apr-12 04:30N 37°23' W 000°45'810.8
2018-Apr-12 03:47N 37°18' W 000°52'22510.6
2018-Apr-11 06:31N 36°00' W 005°15'014.5
2018-Apr-11 06:30N 36°00' W 005°15'714.3
2018-Apr-11 06:00N 35°58' W 005°24'  

Dump ship's entire track history